Time;durP1;ratioP1;P1;durP2;ratioP2;P2;SDS_P1;SDS_P2;PMS_P1;PMS_P2;Temp;Humidity;BMP_temperature;BMP_pressure;BME280_temperature;BME280_humidity;BME280_pressure;Samples;Min_cycle;Max_cycle;Signal;HPM_P1;HPM_P2
2022/10/16 00:01:29;;;;;;;7.80;1.40;;;22.10;70.10;;;;;;5073207;28;20699;-83
2022/10/16 00:03:58;;;;;;;6.35;1.25;;;22.30;69.70;;;;;;5072823;28;20481;-85
2022/10/16 00:06:28;;;;;;;3.67;0.90;;;22.40;69.20;;;;;;5073683;28;20877;-81
2022/10/16 00:08:56;;;;;;;3.38;1.27;;;22.40;70.70;;;;;;5076861;28;20469;-85
2022/10/16 00:11:38;;;;;;;3.75;1.20;;;22.50;69.10;;;;;;5079112;28;20378;-93
2022/10/16 00:14:10;;;;;;;4.83;1.20;;;22.30;67.70;;;;;;5073623;28;20394;-89
2022/10/16 00:16:38;;;;;;;8.48;1.40;;;22.00;67.80;;;;;;5073871;28;20464;-84
2022/10/16 00:19:05;;;;;;;3.25;1.08;;;21.70;69.90;;;;;;5072871;28;20369;-85
2022/10/16 00:21:33;;;;;;;4.17;1.10;;;21.60;71.40;;;;;;5072503;28;20378;-84
2022/10/16 00:24:06;;;;;;;3.17;1.02;;;21.80;70.10;;;;;;5072469;28;20941;-83
2022/10/16 00:26:37;;;;;;;5.18;1.20;;;22.20;68.20;;;;;;5072913;28;20846;-84
2022/10/16 00:29:05;;;;;;;4.38;1.40;;;22.70;68.20;;;;;;5072168;28;20738;-85
2022/10/16 00:31:33;;;;;;;4.65;1.17;;;23.20;67.50;;;;;;5072500;28;20454;-90
2022/10/16 00:34:00;;;;;;;5.60;1.20;;;23.60;66.40;;;;;;5072719;28;20378;-86
2022/10/16 00:36:27;;;;;;;3.33;1.10;;;23.50;65.80;;;;;;5072592;28;20378;-88
2022/10/16 00:38:57;;;;;;;4.32;1.02;;;23.50;63.30;;;;;;5054621;28;20390;-86
2022/10/16 00:41:25;;;;;;;3.65;1.33;;;23.30;64.40;;;;;;5072919;28;20382;-85
2022/10/16 00:44:01;;;;;;;3.30;1.10;;;23.20;66.30;;;;;;5073637;28;20397;-84
2022/10/16 00:46:28;;;;;;;3.72;1.23;;;23.30;66.80;;;;;;5072435;28;20381;-85
2022/10/16 00:49:07;;;;;;;4.05;1.23;;;23.70;64.90;;;;;;5054543;28;20370;-87
2022/10/16 00:51:37;;;;;;;5.75;1.40;;;24.00;63.60;;;;;;5072449;28;20407;-88
2022/10/16 00:54:11;;;;;;;5.57;1.20;;;24.50;64.20;;;;;;5072007;28;20436;-85
2022/10/16 00:56:38;;;;;;;6.03;1.53;;;25.00;61.40;;;;;;5072351;28;20368;-86
2022/10/16 00:59:15;;;;;;;3.85;1.20;;;25.00;62.30;;;;;;5071894;28;20730;-84
2022/10/16 01:01:42;;;;;;;4.05;1.27;;;25.10;61.60;;;;;;5072438;28;20416;-82
2022/10/16 01:04:09;;;;;;;3.70;1.33;;;25.20;59.40;;;;;;5071753;28;20397;-85
2022/10/16 01:06:46;;;;;;;5.50;1.37;;;25.30;59.60;;;;;;5072060;28;20381;-86
2022/10/16 01:09:25;;;;;;;6.85;3.03;;;25.50;59.20;;;;;;5072926;28;20405;-82
2022/10/16 01:11:55;;;;;;;4.30;1.92;;;25.80;59.10;;;;;;5072130;28;20394;-83
2022/10/16 01:14:40;;;;;;;4.10;1.50;;;25.90;57.90;;;;;;5071672;28;20397;-81
2022/10/16 01:17:29;;;;;;;3.72;1.35;;;25.90;56.80;;;;;;5071609;28;20389;-84
2022/10/16 01:20:32;;;;;;;9.32;4.13;;;25.90;57.30;;;;;;5072152;28;20370;-83
2022/10/16 01:23:26;;;;;;;33.35;26.13;;;25.90;57.20;;;;;;5055366;28;20377;-83
2022/10/16 01:26:36;;;;;;;5.60;3.25;;;26.10;58.30;;;;;;5087703;27;20359;-86
2022/10/16 01:29:12;;;;;;;5.10;2.00;;;26.70;57.30;;;;;;5047883;28;20380;-88
2022/10/16 01:31:43;;;;;;;4.28;1.80;;;27.00;57.20;;;;;;5047630;28;20384;-83
2022/10/16 01:34:22;;;;;;;5.75;1.90;;;27.10;55.20;;;;;;5045772;28;20484;-85
2022/10/16 01:36:57;;;;;;;5.90;2.00;;;27.00;53.60;;;;;;5047245;28;20450;-84
2022/10/16 01:39:29;;;;;;;8.30;2.45;;;26.50;54.90;;;;;;5047614;28;20478;-83
2022/10/16 01:42:01;;;;;;;5.10;1.70;;;26.40;55.10;;;;;;5046991;28;20385;-82
2022/10/16 01:44:32;;;;;;;3.90;1.60;;;26.50;54.40;;;;;;5047645;28;20409;-86
2022/10/16 01:47:01;;;;;;;4.43;1.70;;;26.80;54.90;;;;;;5047980;28;20384;-84
2022/10/16 01:49:34;;;;;;;4.53;1.57;;;27.10;53.50;;;;;;5047503;28;20884;-85
2022/10/16 01:52:05;;;;;;;4.35;1.70;;;27.40;55.10;;;;;;5047233;28;20369;-85
2022/10/16 01:54:35;;;;;;;4.95;1.30;;;28.10;53.00;;;;;;5047040;28;20391;-82
2022/10/16 01:57:06;;;;;;;3.97;1.33;;;28.30;53.30;;;;;;5052223;28;20503;-84
2022/10/16 01:59:37;;;;;;;4.10;1.90;;;28.40;51.90;;;;;;5049829;28;20761;-85
2022/10/16 02:02:08;;;;;;;6.28;1.80;;;28.40;52.90;;;;;;5047311;28;20382;-84
2022/10/16 02:04:49;;;;;;;7.18;2.13;;;28.10;53.80;;;;;;5048133;28;20396;-84
2022/10/16 02:07:16;;;;;;;4.88;2.40;;;27.90;53.30;;;;;;5055653;28;20396;-85
2022/10/16 02:09:44;;;;;;;29.40;3.10;;;27.50;53.60;;;;;;5046878;28;20385;-84
2022/10/16 02:12:18;;;;;;;17.73;2.67;;;26.90;53.20;;;;;;5049383;28;20395;-84
2022/10/16 02:14:45;;;;;;;5.40;2.10;;;26.50;54.60;;;;;;5046743;28;20376;-84
2022/10/16 02:17:20;;;;;;;4.85;1.77;;;26.20;55.10;;;;;;5046467;28;20396;-84
2022/10/16 02:19:49;;;;;;;4.18;1.67;;;26.00;54.90;;;;;;5041118;28;20377;-83
2022/10/16 02:22:36;;;;;;;3.20;1.50;;;26.50;54.90;;;;;;5047064;28;20369;-85
2022/10/16 02:25:09;;;;;;;4.90;1.80;;;27.30;52.70;;;;;;5046411;28;20908;-84
2022/10/16 02:27:44;;;;;;;30.73;26.63;;;28.10;52.10;;;;;;5045238;28;20381;-84
2022/10/16 02:30:29;;;;;;;10.90;7.93;;;28.90;50.40;;;;;;5047287;28;20460;-84
2022/10/16 02:32:58;;;;;;;42.47;37.95;;;30.50;49.00;;;;;;5046926;28;20903;-84
2022/10/16 02:35:27;;;;;;;11.98;7.85;;;31.00;48.10;;;;;;5045664;28;20408;-84
2022/10/16 02:37:55;;;;;;;8.73;4.40;;;30.80;48.10;;;;;;5034835;28;20424;-84
2022/10/16 02:40:22;;;;;;;9.05;5.60;;;30.10;48.50;;;;;;5033566;28;20401;-83
2022/10/16 02:42:52;;;;;;;9.60;5.40;;;29.00;49.70;;;;;;5034282;28;20749;-83
2022/10/16 02:45:20;;;;;;;10.70;6.43;;;28.00;51.40;;;;;;5015920;28;20438;-83
2022/10/16 02:47:47;;;;;;;7.07;1.50;;;27.40;52.60;;;;;;5024769;28;20378;-84
2022/10/16 02:50:14;;;;;;;4.85;1.67;;;27.20;52.30;;;;;;5034339;28;20408;-83
2022/10/16 02:52:41;;;;;;;4.82;1.50;;;26.80;53.10;;;;;;5034986;28;20390;-85
2022/10/16 02:55:09;;;;;;;8.52;1.77;;;26.20;53.60;;;;;;5035308;28;20397;-84
2022/10/16 02:57:37;;;;;;;11.90;1.50;;;25.70;55.10;;;;;;5034395;28;20396;-83
2022/10/16 03:00:05;;;;;;;7.50;1.55;;;25.50;56.30;;;;;;5034888;28;20487;-85
2022/10/16 03:02:32;;;;;;;7.32;1.38;;;26.60;56.10;;;;;;5020157;28;20366;-85
2022/10/16 03:04:59;;;;;;;7.32;1.50;;;27.10;55.40;;;;;;5035985;28;20396;-84
2022/10/16 03:07:26;;;;;;;6.03;1.53;;;27.10;55.10;;;;;;5037812;28;20476;-83
2022/10/16 03:09:54;;;;;;;4.30;1.35;;;26.90;55.80;;;;;;5027441;28;20370;-88
2022/10/16 03:12:21;;;;;;;4.93;1.63;;;26.40;56.40;;;;;;5035679;28;20528;-87
2022/10/16 03:14:48;;;;;;;5.80;1.50;;;25.80;57.20;;;;;;5034269;28;20435;-86
2022/10/16 03:17:16;;;;;;;4.72;1.60;;;25.60;57.80;;;;;;5034559;28;20416;-86
2022/10/16 03:19:44;;;;;;;40.83;4.40;;;25.80;58.10;;;;;;5038474;28;20369;-90
2022/10/16 03:22:15;;;;;;;15.27;2.55;;;26.30;57.10;;;;;;5035318;28;20460;-85
2022/10/16 03:24:42;;;;;;;11.70;2.10;;;26.40;56.90;;;;;;5036000;28;20893;-84
2022/10/16 03:27:09;;;;;;;5.50;1.80;;;26.20;57.50;;;;;;5030517;28;20915;-83
2022/10/16 03:29:38;;;;;;;5.40;1.50;;;25.80;58.60;;;;;;5036616;28;20389;-85
2022/10/16 03:32:05;;;;;;;7.80;2.00;;;25.50;59.00;;;;;;5035832;28;20377;-85
2022/10/16 03:34:34;;;;;;;38.00;4.22;;;25.10;60.10;;;;;;5035635;28;20386;-84
2022/10/16 03:37:02;;;;;;;46.20;4.50;;;24.70;61.10;;;;;;5036015;28;20393;-84
2022/10/16 03:39:29;;;;;;;8.73;1.88;;;24.30;62.20;;;;;;5033031;28;20390;-84
2022/10/16 03:41:56;;;;;;;7.47;1.90;;;24.00;63.60;;;;;;5036459;28;20722;-84
2022/10/16 03:44:24;;;;;;;7.10;1.58;;;24.20;63.80;;;;;;5034968;28;20446;-83
2022/10/16 03:46:51;;;;;;;5.53;1.60;;;24.50;64.10;;;;;;5035655;28;20385;-87
2022/10/16 03:49:18;;;;;;;6.55;1.63;;;24.90;64.40;;;;;;5034199;28;20404;-88
2022/10/16 03:51:45;;;;;;;4.25;1.30;;;26.00;62.10;;;;;;5034726;28;20875;-91
2022/10/16 03:54:13;;;;;;;7.43;1.67;;;26.70;59.80;;;;;;5037375;28;20385;-87
2022/10/16 03:56:39;;;;;;;8.32;1.92;;;26.80;59.50;;;;;;5033704;28;20394;-90
2022/10/16 03:59:06;;;;;;;12.30;2.40;;;27.20;60.20;;;;;;5034248;28;20370;-88
2022/10/16 04:01:34;;;;;;;5.95;1.70;;;27.00;60.70;;;;;;5033570;28;20448;-86
2022/10/16 04:04:01;;;;;;;5.45;1.60;;;26.70;61.00;;;;;;5036814;28;20381;-89
2022/10/16 04:06:27;;;;;;;5.95;1.52;;;25.90;61.60;;;;;;5035681;28;20826;-84
2022/10/16 04:08:54;;;;;;;5.03;1.70;;;25.20;63.80;;;;;;5032301;28;20373;-88
2022/10/16 04:11:22;;;;;;;5.45;1.42;;;24.80;64.60;;;;;;5032024;28;20405;-87
2022/10/16 04:13:49;;;;;;;4.05;1.50;;;25.20;64.90;;;;;;5033508;28;20457;-88
2022/10/16 04:16:16;;;;;;;5.68;1.55;;;26.50;64.40;;;;;;5033086;28;20423;-86
2022/10/16 04:18:43;;;;;;;5.70;1.40;;;27.50;59.90;;;;;;5033031;28;20384;-87
2022/10/16 04:21:11;;;;;;;3.75;1.48;;;28.50;57.50;;;;;;5031901;28;20382;-87
2022/10/16 04:23:38;;;;;;;5.23;1.50;;;29.40;57.90;;;;;;5032763;28;20421;-87
2022/10/16 04:26:05;;;;;;;5.07;1.40;;;29.70;54.30;;;;;;5032829;28;20412;-87
2022/10/16 04:28:32;;;;;;;5.25;2.17;;;29.70;54.90;;;;;;5019019;28;20369;-88
2022/10/16 04:30:59;;;;;;;4.73;1.57;;;30.10;54.80;;;;;;5031944;28;20409;-93
2022/10/16 04:33:26;;;;;;;4.25;1.55;;;30.80;53.80;;;;;;5032753;28;20400;-92
2022/10/16 04:36:00;;;;;;;4.28;1.58;;;31.20;53.40;;;;;;5033015;28;20385;-92
2022/10/16 04:38:31;;;;;;;4.35;1.40;;;31.20;51.80;;;;;;5032576;28;20903;-89
2022/10/16 04:40:58;;;;;;;3.95;1.40;;;31.10;53.00;;;;;;5031797;28;20916;-93
2022/10/16 04:43:27;;;;;;;4.75;1.33;;;30.70;52.60;;;;;;5032799;28;20452;-88
2022/10/16 04:45:54;;;;;;;4.15;1.40;;;30.10;53.80;;;;;;5031766;28;20831;-90
2022/10/16 04:48:21;;;;;;;5.10;1.40;;;30.00;55.50;;;;;;5034622;28;20385;-91
2022/10/16 04:50:48;;;;;;;8.10;1.70;;;30.30;53.90;;;;;;5031947;28;20913;-89
2022/10/16 04:53:17;;;;;;;5.55;1.63;;;29.80;55.20;;;;;;5031673;28;20366;-92
2022/10/16 04:55:44;;;;;;;5.40;1.40;;;29.90;54.80;;;;;;5030154;28;20385;-92
2022/10/16 04:58:11;;;;;;;6.05;1.50;;;30.00;54.40;;;;;;5031409;28;20377;-92
2022/10/16 05:00:38;;;;;;;6.13;1.63;;;30.50;53.60;;;;;;5031116;28;20384;-86
2022/10/16 05:03:08;;;;;;;5.53;1.60;;;30.90;52.80;;;;;;5031502;28;20929;-89
2022/10/16 05:05:36;;;;;;;3.72;1.45;;;30.40;52.60;;;;;;5030803;28;20417;-91
2022/10/16 05:08:04;;;;;;;4.50;1.40;;;30.10;52.70;;;;;;5031668;28;20381;-91
2022/10/16 05:10:31;;;;;;;4.57;1.40;;;29.70;53.30;;;;;;5031190;28;20389;-92
2022/10/16 05:12:58;;;;;;;3.67;1.45;;;29.80;53.70;;;;;;5031540;28;20384;-90
2022/10/16 05:15:25;;;;;;;6.20;1.70;;;30.10;54.10;;;;;;5031351;28;20381;-89
2022/10/16 05:17:55;;;;;;;4.80;1.40;;;29.60;54.80;;;;;;5030541;28;20381;-86
2022/10/16 05:20:23;;;;;;;4.88;1.30;;;28.70;57.10;;;;;;5030792;28;20896;-89
2022/10/16 05:22:50;;;;;;;4.40;1.45;;;28.70;56.70;;;;;;5030974;28;20393;-91
2022/10/16 05:25:18;;;;;;;6.65;1.67;;;27.90;58.00;;;;;;5025359;28;20474;-92
2022/10/16 05:27:48;;;;;;;5.43;1.50;;;27.20;57.80;;;;;;5029884;28;20388;-83
2022/10/16 05:30:16;;;;;;;5.35;1.38;;;26.50;59.50;;;;;;5023573;28;20733;-90
2022/10/16 05:32:46;;;;;;;4.32;1.35;;;25.70;60.50;;;;;;5031260;28;20424;-90
2022/10/16 05:35:13;;;;;;;4.05;1.42;;;25.20;62.00;;;;;;5031287;28;20962;-87
2022/10/16 05:37:40;;;;;;;4.72;1.60;;;25.30;63.40;;;;;;5030896;28;20392;-86
2022/10/16 05:40:08;;;;;;;5.07;1.37;;;26.30;62.40;;;;;;5030112;28;20381;-90
2022/10/16 05:42:35;;;;;;;4.30;1.40;;;27.20;60.10;;;;;;5031223;28;20389;-85
2022/10/16 05:45:04;;;;;;;5.05;1.42;;;28.00;58.10;;;;;;5030632;28;20401;-87
2022/10/16 05:47:31;;;;;;;3.50;1.30;;;28.40;57.20;;;;;;5031121;28;20400;-88
2022/10/16 05:49:58;;;;;;;3.67;1.40;;;28.60;57.00;;;;;;5031898;28;20397;-89
2022/10/16 05:52:26;;;;;;;3.75;1.20;;;28.80;57.20;;;;;;5031518;28;20449;-90
2022/10/16 05:54:53;;;;;;;3.20;1.30;;;29.20;56.20;;;;;;5032112;28;20865;-81
2022/10/16 05:57:20;;;;;;;5.93;1.50;;;29.40;55.50;;;;;;5031679;28;20428;-81
2022/10/16 05:59:47;;;;;;;6.38;1.50;;;29.00;56.30;;;;;;5036840;28;20463;-86
2022/10/16 06:02:15;;;;;;;4.00;1.48;;;29.10;55.90;;;;;;5033738;28;20385;-85
2022/10/16 06:04:42;;;;;;;4.97;1.42;;;28.80;56.00;;;;;;5033061;28;20478;-93
2022/10/16 06:07:09;;;;;;;4.05;1.40;;;28.60;57.20;;;;;;5033937;28;20393;-93
2022/10/16 06:09:36;;;;;;;4.95;1.38;;;27.60;58.20;;;;;;5032611;28;20381;-89
2022/10/16 06:12:03;;;;;;;5.35;1.30;;;26.50;61.50;;;;;;5034474;28;20385;-86
2022/10/16 06:14:30;;;;;;;4.45;1.50;;;25.80;61.60;;;;;;5035435;28;20377;-92
2022/10/16 06:16:57;;;;;;;3.55;1.30;;;25.20;62.90;;;;;;5036276;28;20385;-87
2022/10/16 06:19:24;;;;;;;4.60;1.27;;;24.70;64.60;;;;;;5036799;28;20385;-92
2022/10/16 06:21:51;;;;;;;5.03;1.50;;;24.10;66.10;;;;;;5024795;28;20382;-92
2022/10/16 06:24:18;;;;;;;6.28;1.60;;;23.70;67.90;;;;;;5033543;28;20405;-91
2022/10/16 06:26:45;;;;;;;4.90;1.40;;;23.30;69.90;;;;;;5038064;28;20370;-87
2022/10/16 06:29:12;;;;;;;5.43;1.60;;;23.10;70.60;;;;;;5042035;28;20385;-92
2022/10/16 06:31:39;;;;;;;5.25;1.50;;;22.90;71.80;;;;;;5055404;28;20402;-93
2022/10/16 06:34:09;;;;;;;4.75;1.30;;;22.80;72.40;;;;;;5039873;28;20384;-84
2022/10/16 06:36:36;;;;;;;3.72;1.33;;;22.70;73.20;;;;;;5037005;28;20380;-93
2022/10/16 06:39:05;;;;;;;6.63;1.60;;;22.50;73.80;;;;;;5035559;28;20854;-91
2022/10/16 06:41:32;;;;;;;4.68;1.30;;;22.30;75.10;;;;;;5036789;28;20929;-90
2022/10/16 06:43:59;;;;;;;5.63;1.42;;;22.10;76.50;;;;;;5036529;28;20397;-92
2022/10/16 06:46:27;;;;;;;5.13;1.60;;;22.10;77.60;;;;;;5036000;28;20424;-85
2022/10/16 06:48:54;;;;;;;5.20;1.50;;;21.90;78.90;;;;;;5021093;28;20388;-94
2022/10/16 06:51:23;;;;;;;7.13;1.60;;;21.80;80.70;;;;;;5034290;28;20447;-94
2022/10/16 06:53:58;;;;;;;5.00;1.57;;;21.80;82.20;;;;;;5028438;28;20401;-90
2022/10/16 06:56:26;;;;;;;6.38;1.50;;;21.60;83.90;;;;;;5037488;28;20800;-88
2022/10/16 06:58:54;;;;;;;3.75;1.40;;;21.60;86.00;;;;;;5034313;28;20422;-89
2022/10/16 07:01:23;;;;;;;6.30;1.50;;;21.50;87.10;;;;;;5024449;28;20406;-86
2022/10/16 07:03:51;;;;;;;5.72;1.50;;;21.40;88.70;;;;;;5033327;28;20450;-87
2022/10/16 07:06:21;;;;;;;5.15;1.50;;;21.40;89.50;;;;;;5037425;28;20396;-87
2022/10/16 07:08:48;;;;;;;6.83;1.60;;;21.30;90.70;;;;;;5035294;28;20397;-87
2022/10/16 07:11:18;;;;;;;7.78;1.60;;;21.20;92.10;;;;;;5035997;28;20899;-88
2022/10/16 07:13:47;;;;;;;5.47;1.40;;;21.20;92.70;;;;;;5033432;28;20554;-84
2022/10/16 07:16:23;;;;;;;6.13;1.80;;;21.10;92.60;;;;;;5027678;28;20517;-86
2022/10/16 07:18:51;;;;;;;5.90;1.40;;;21.10;93.00;;;;;;5028509;28;20393;-87
2022/10/16 07:21:20;;;;;;;6.07;1.50;;;21.00;93.50;;;;;;5033494;28;20397;-92
2022/10/16 07:23:59;;;;;;;3.65;1.55;;;20.80;94.10;;;;;;5049518;28;20465;-90
2022/10/16 07:26:27;;;;;;;6.07;1.45;;;20.80;95.10;;;;;;5049004;28;20402;-86
2022/10/16 07:28:54;;;;;;;5.07;1.40;;;20.70;95.60;;;;;;5048442;28;20373;-85
2022/10/16 07:31:22;;;;;;;5.35;1.33;;;20.60;95.70;;;;;;5044427;28;20409;-88
2022/10/16 07:33:50;;;;;;;4.40;1.45;;;20.50;96.00;;;;;;5030897;28;20392;-90
2022/10/16 07:36:18;;;;;;;5.03;1.33;;;20.40;96.90;;;;;;5040475;28;20456;-87
2022/10/16 07:38:46;;;;;;;4.78;1.63;;;20.30;97.20;;;;;;5023234;28;20390;-92
2022/10/16 07:41:18;;;;;;;4.70;1.60;;;20.10;98.10;;;;;;5033770;28;20927;-92
2022/10/16 07:43:50;;;;;;;5.88;1.50;;;20.00;99.00;;;;;;5053553;28;20401;-89
2022/10/16 07:46:18;;;;;;;5.60;1.60;;;19.80;99.30;;;;;;5040022;28;20409;-85
2022/10/16 07:48:47;;;;;;;6.05;1.58;;;19.80;99.90;;;;;;5032402;28;20462;-84
2022/10/16 07:51:16;;;;;;;5.60;1.48;;;19.70;99.90;;;;;;5036804;28;20424;-91
2022/10/16 07:53:43;;;;;;;5.53;1.40;;;19.50;99.90;;;;;;5034974;28;20400;-87
2022/10/16 07:56:11;;;;;;;4.07;1.27;;;19.50;99.90;;;;;;5037646;28;20439;-92
2022/10/16 07:58:38;;;;;;;5.30;1.45;;;19.40;99.90;;;;;;5022665;28;20375;-91
2022/10/16 08:01:07;;;;;;;4.47;1.33;;;19.40;99.90;;;;;;5035698;28;20389;-92
2022/10/16 08:03:34;;;;;;;5.80;1.35;;;19.30;99.90;;;;;;5034391;28;20410;-92
2022/10/16 08:06:03;;;;;;;6.25;1.60;;;19.10;99.90;;;;;;5031149;28;20490;-93
2022/10/16 08:08:30;;;;;;;4.45;1.52;;;19.00;99.90;;;;;;5015226;28;20389;-85
2022/10/16 08:10:57;;;;;;;5.32;1.70;;;19.00;99.90;;;;;;5039586;28;20403;-92
2022/10/16 08:13:24;;;;;;;5.03;1.45;;;18.90;99.90;;;;;;5029213;28;20950;-85
2022/10/16 08:15:51;;;;;;;5.53;1.40;;;18.80;99.90;;;;;;5028125;28;20422;-87
2022/10/16 08:18:18;;;;;;;5.43;1.13;;;18.70;99.90;;;;;;5029224;28;20412;-87
2022/10/16 08:20:45;;;;;;;5.05;1.40;;;18.60;99.90;;;;;;5038160;28;20386;-91
2022/10/16 08:23:13;;;;;;;5.47;1.58;;;18.50;99.90;;;;;;5033876;28;20443;-84
2022/10/16 08:25:41;;;;;;;4.78;1.50;;;18.40;99.90;;;;;;5032980;28;20877;-87
2022/10/16 08:28:11;;;;;;;4.47;1.25;;;18.30;99.90;;;;;;5033037;28;20401;-85
2022/10/16 08:30:38;;;;;;;4.57;1.40;;;18.20;99.90;;;;;;5032692;28;20396;-87
2022/10/16 08:33:06;;;;;;;7.60;1.60;;;18.10;99.90;;;;;;5031082;28;20894;-88
2022/10/16 08:35:33;;;;;;;5.37;1.50;;;18.00;99.90;;;;;;5023871;28;20451;-89
2022/10/16 08:38:00;;;;;;;4.82;1.30;;;17.90;99.90;;;;;;5025404;28;20400;-86
2022/10/16 08:40:32;;;;;;;5.40;1.40;;;17.90;99.90;;;;;;5024702;28;20406;-89
2022/10/16 08:43:07;;;;;;;6.50;1.60;;;17.90;99.90;;;;;;5031318;28;20397;-87
2022/10/16 08:45:45;;;;;;;6.15;1.40;;;17.80;99.90;;;;;;5027674;28;20405;-86
2022/10/16 08:48:25;;;;;;;6.00;1.50;;;17.80;99.90;;;;;;5032397;28;20382;-84
2022/10/16 08:50:53;;;;;;;5.07;1.35;;;17.80;99.90;;;;;;5032155;28;20437;-91
2022/10/16 08:53:30;;;;;;;5.13;1.40;;;17.80;99.90;;;;;;5030973;28;20444;-85
2022/10/16 08:55:58;;;;;;;4.30;1.20;;;17.70;99.90;;;;;;5033916;28;20385;-85
2022/10/16 08:58:30;;;;;;;4.45;1.30;;;17.80;99.90;;;;;;5030303;28;20393;-86
2022/10/16 09:01:03;;;;;;;6.53;1.50;;;17.80;99.90;;;;;;5028469;28;20903;-91
2022/10/16 09:03:55;;;;;;;4.35;1.30;;;17.80;99.90;;;;;;5032971;28;20392;-90
2022/10/16 09:06:57;;;;;;;5.27;1.40;;;17.90;99.90;;;;;;5025905;28;20406;-89
2022/10/16 09:09:42;;;;;;;4.78;1.17;;;17.80;99.90;;;;;;5038382;28;20395;-87
2022/10/16 09:12:18;;;;;;;3.85;1.15;;;17.70;99.90;;;;;;5047232;28;20383;-90
2022/10/16 09:15:06;;;;;;;4.10;1.40;;;17.70;99.90;;;;;;5053104;28;20393;-90
2022/10/16 09:18:03;;;;;;;4.70;1.40;;;17.60;99.90;;;;;;5034495;28;20394;-90
2022/10/16 09:20:36;;;;;;;4.05;1.10;;;17.50;99.90;;;;;;5055608;28;20387;-85
2022/10/16 09:23:06;;;;;;;4.45;1.20;;;17.50;99.90;;;;;;5047118;28;20371;-83
2022/10/16 09:25:34;;;;;;;3.80;1.30;;;17.50;99.90;;;;;;5054090;28;20576;-87
2022/10/16 09:28:01;;;;;;;5.40;1.30;;;17.50;99.90;;;;;;5043654;28;20381;-85
2022/10/16 09:30:29;;;;;;;3.37;1.30;;;17.40;99.90;;;;;;5046411;28;20398;-88
2022/10/16 09:32:58;;;;;;;4.28;1.30;;;17.40;99.90;;;;;;5046239;28;20385;-83
2022/10/16 09:35:41;;;;;;;6.40;1.40;;;17.30;99.90;;;;;;5043602;28;20397;-88
2022/10/16 09:38:20;;;;;;;3.42;1.30;;;17.30;99.90;;;;;;5036517;28;20376;-87
2022/10/16 09:40:47;;;;;;;4.72;1.30;;;17.20;99.90;;;;;;5048021;28;20386;-86
2022/10/16 09:43:55;;;;;;;4.13;1.30;;;17.20;99.90;;;;;;5047656;28;20416;-82
2022/10/16 09:46:33;;;;;;;6.45;1.63;;;17.10;99.90;;;;;;5038741;28;20439;-89
2022/10/16 09:49:03;;;;;;;8.05;1.60;;;17.10;99.90;;;;;;5038437;28;20393;-87
2022/10/16 09:51:35;;;;;;;5.60;1.27;;;17.10;99.90;;;;;;5039887;28;20378;-88
2022/10/16 09:54:16;;;;;;;5.43;1.45;;;17.10;99.90;;;;;;5041781;28;20400;-87
2022/10/16 09:57:03;;;;;;;3.90;1.40;;;17.10;99.90;;;;;;5041753;28;20433;-88
2022/10/16 09:59:32;;;;;;;4.45;1.52;;;17.10;99.90;;;;;;5028979;28;20401;-90
2022/10/16 10:02:05;;;;;;;5.50;1.70;;;17.00;99.90;;;;;;5043614;28;20390;-86
2022/10/16 10:04:42;;;;;;;8.48;1.45;;;16.90;99.90;;;;;;5031540;28;20402;-86
2022/10/16 10:07:20;;;;;;;5.45;1.40;;;16.90;99.90;;;;;;5032096;28;20400;-89
2022/10/16 10:09:48;;;;;;;5.88;1.45;;;16.80;99.90;;;;;;5037569;28;20377;-82
2022/10/16 10:12:34;;;;;;;5.53;1.60;;;16.80;99.90;;;;;;5033675;28;20533;-86
2022/10/16 10:15:13;;;;;;;6.25;1.40;;;16.70;99.90;;;;;;5025601;28;20401;-88
2022/10/16 10:17:49;;;;;;;5.50;1.45;;;16.70;99.90;;;;;;5027038;28;20397;-89
2022/10/16 10:20:34;;;;;;;6.97;1.75;;;16.50;99.90;;;;;;5037260;28;20872;-89
2022/10/16 10:23:19;;;;;;;5.57;1.52;;;16.50;99.90;;;;;;5034310;28;20474;-90
2022/10/16 10:25:58;;;;;;;9.23;1.45;;;16.50;99.90;;;;;;5036309;28;20778;-90
2022/10/16 10:28:36;;;;;;;7.63;1.70;;;16.50;99.90;;;;;;5035102;28;20382;-86
2022/10/16 10:31:20;;;;;;;6.05;1.50;;;16.50;99.90;;;;;;5039964;28;20736;-88
2022/10/16 10:34:02;;;;;;;8.02;1.48;;;16.40;99.90;;;;;;5023067;28;20392;-89
2022/10/16 10:36:39;;;;;;;5.90;1.60;;;16.40;99.90;;;;;;5035347;28;20377;-90
2022/10/16 10:39:11;;;;;;;7.32;1.83;;;16.40;99.90;;;;;;5035971;28;20946;-87
2022/10/16 10:42:09;;;;;;;5.55;1.70;;;16.40;99.90;;;;;;5037018;28;20460;-86
2022/10/16 10:45:11;;;;;;;8.10;1.85;;;16.40;99.90;;;;;;5048679;28;20439;-88
2022/10/16 10:47:49;;;;;;;8.05;2.10;;;16.40;99.90;;;;;;5026364;28;20365;-88
2022/10/16 10:50:23;;;;;;;7.25;1.80;;;16.40;99.90;;;;;;5038490;28;20918;-88
2022/10/16 10:53:04;;;;;;;7.95;1.80;;;16.40;99.90;;;;;;5034836;28;20385;-87
2022/10/16 10:55:49;;;;;;;10.27;1.90;;;16.40;99.90;;;;;;5034727;28;20380;-89
2022/10/16 10:58:16;;;;;;;8.80;2.10;;;16.40;99.90;;;;;;5034032;28;20393;-88
2022/10/16 11:01:14;;;;;;;10.68;2.30;;;16.40;99.90;;;;;;5023287;28;20376;-89
2022/10/16 11:04:02;;;;;;;10.60;2.20;;;16.40;99.90;;;;;;5035973;28;20417;-91
2022/10/16 11:06:41;;;;;;;11.55;2.40;;;16.40;99.90;;;;;;5035660;28;20385;-89
2022/10/16 11:09:28;;;;;;;11.57;2.30;;;16.40;99.90;;;;;;5034718;28;20374;-89
2022/10/16 11:12:20;;;;;;;8.65;2.30;;;16.50;99.90;;;;;;5039476;28;20381;-88
2022/10/16 11:14:57;;;;;;;8.65;2.13;;;16.50;99.90;;;;;;5015776;28;20409;-86
2022/10/16 11:17:49;;;;;;;7.63;2.10;;;16.60;99.90;;;;;;5032070;28;20476;-89
2022/10/16 11:20:44;;;;;;;10.93;2.20;;;16.60;99.90;;;;;;5028863;28;20472;-87
2022/10/16 11:23:27;;;;;;;10.38;2.38;;;16.70;99.90;;;;;;5016847;28;20409;-87
2022/10/16 11:25:57;;;;;;;9.82;2.33;;;16.60;99.90;;;;;;5032004;28;20409;-85
2022/10/16 11:28:32;;;;;;;10.20;2.20;;;16.70;99.90;;;;;;5028081;28;20381;-88
2022/10/16 11:31:10;;;;;;;9.25;2.30;;;16.70;99.90;;;;;;5018676;28;20402;-87
2022/10/16 11:34:00;;;;;;;10.60;2.35;;;16.70;99.90;;;;;;5030653;28;20900;-85
2022/10/16 11:37:07;;;;;;;9.97;2.50;;;16.70;99.90;;;;;;5029374;28;20464;-86
2022/10/16 11:39:34;;;;;;;10.65;2.40;;;16.70;99.90;;;;;;5029997;28;20377;-89
2022/10/16 11:42:45;;;;;;;9.57;2.50;;;16.70;99.90;;;;;;5050733;28;20388;-81
2022/10/16 11:45:42;;;;;;;12.00;2.53;;;16.70;99.90;;;;;;4993143;28;20413;-82
2022/10/16 11:48:30;;;;;;;8.55;2.50;;;16.70;99.90;;;;;;4993258;28;20380;-82
2022/10/16 11:51:15;;;;;;;10.98;3.00;;;16.70;99.90;;;;;;4992981;28;20753;-84
2022/10/16 11:53:58;;;;;;;12.48;3.00;;;16.60;99.90;;;;;;4993160;28;20395;-87
2022/10/16 11:56:26;;;;;;;9.68;2.88;;;16.60;99.90;;;;;;4993361;28;20373;-86
2022/10/16 11:59:08;;;;;;;14.35;3.42;;;16.60;99.90;;;;;;4992969;28;20466;-86
2022/10/16 12:01:58;;;;;;;9.93;3.10;;;16.60;99.90;;;;;;4993214;28;20416;-82
2022/10/16 12:04:56;;;;;;;9.30;2.70;;;16.50;99.90;;;;;;4993028;28;20425;-88
2022/10/16 12:07:31;;;;;;;10.37;3.10;;;16.60;99.90;;;;;;4991072;28;20396;-81
2022/10/16 12:10:00;;;;;;;13.63;3.13;;;16.60;99.90;;;;;;5001188;28;20859;-80
2022/10/16 12:12:37;;;;;;;14.95;2.88;;;16.50;99.90;;;;;;5000832;28;20750;-83
2022/10/16 12:15:38;;;;;;;7.47;2.67;;;16.60;99.90;;;;;;4962961;28;20407;-86
2022/10/16 12:18:08;;;;;;;9.30;2.65;;;16.50;99.90;;;;;;4941986;28;20401;-86
2022/10/16 12:20:37;;;;;;;7.90;2.45;;;16.50;99.90;;;;;;5014245;28;20382;-86
2022/10/16 12:23:07;;;;;;;9.07;2.60;;;16.50;99.90;;;;;;5014018;28;20418;-88
2022/10/16 12:25:46;;;;;;;8.60;2.47;;;16.50;99.90;;;;;;4997170;28;20940;-87
2022/10/16 12:28:19;;;;;;;9.23;2.40;;;16.50;99.90;;;;;;5011695;28;20387;-86
2022/10/16 12:31:12;;;;;;;11.55;2.58;;;16.40;99.90;;;;;;5012932;28;20832;-82
2022/10/16 12:33:43;;;;;;;7.53;2.10;;;16.40;99.90;;;;;;5013145;28;20375;-87
2022/10/16 12:36:37;;;;;;;6.60;2.10;;;16.40;99.90;;;;;;5012882;28;20384;-83
2022/10/16 12:39:04;;;;;;;9.02;2.17;;;16.40;99.90;;;;;;5011956;28;20466;-83
2022/10/16 12:41:39;;;;;;;9.57;2.10;;;16.40;99.90;;;;;;5012629;28;20383;-87
2022/10/16 12:44:21;;;;;;;7.57;1.87;;;16.40;99.90;;;;;;5013124;28;21029;-86
2022/10/16 12:46:50;;;;;;;6.30;1.90;;;16.30;99.90;;;;;;5012241;28;20459;-87
2022/10/16 12:49:32;;;;;;;5.60;1.60;;;16.40;99.90;;;;;;5045717;28;20377;-88
2022/10/16 12:51:59;;;;;;;8.38;1.90;;;16.30;99.90;;;;;;5014363;28;20870;-86
2022/10/16 12:54:32;;;;;;;6.80;1.73;;;16.30;99.90;;;;;;5014446;28;20375;-83
2022/10/16 12:57:14;;;;;;;6.00;1.70;;;16.40;99.90;;;;;;5013999;28;20384;-83
2022/10/16 13:00:09;;;;;;;5.50;1.70;;;16.40;99.90;;;;;;5014489;28;20866;-85
2022/10/16 13:02:57;;;;;;;5.90;1.50;;;16.40;99.90;;;;;;5031803;28;20373;-87
2022/10/16 13:06:00;;;;;;;6.45;1.55;;;16.30;99.90;;;;;;5032500;28;20401;-88
2022/10/16 13:08:55;;;;;;;5.78;1.50;;;16.40;99.90;;;;;;5031771;28;20373;-86
2022/10/16 13:11:58;;;;;;;6.45;1.73;;;16.30;99.90;;;;;;5034234;28;20414;-86
2022/10/16 13:14:58;;;;;;;6.57;1.33;;;16.30;99.90;;;;;;5035660;28;20373;-81
2022/10/16 13:17:27;;;;;;;6.97;1.33;;;16.30;99.90;;;;;;5037391;28;20391;-88